sensor_id;sensor_type;location;lat;lon;timestamp;P1;durP1;ratioP1;P2;durP2;ratioP2
13204;SDS011;6667;52.634;9.226;2024-03-29T00:00:34;3.13;;;0.90;;
13204;SDS011;6667;52.634;9.226;2024-03-29T00:02:59;1.33;;;1.03;;
13204;SDS011;6667;52.634;9.226;2024-03-29T00:05:25;1.00;;;0.60;;
13204;SDS011;6667;52.634;9.226;2024-03-29T00:07:51;0.53;;;0.43;;
13204;SDS011;6667;52.634;9.226;2024-03-29T00:10:17;1.97;;;0.80;;
13204;SDS011;6667;52.634;9.226;2024-03-29T00:12:44;3.50;;;0.80;;
13204;SDS011;6667;52.634;9.226;2024-03-29T00:15:10;2.10;;;0.80;;
13204;SDS011;6667;52.634;9.226;2024-03-29T00:17:35;2.20;;;0.83;;
13204;SDS011;6667;52.634;9.226;2024-03-29T00:20:01;0.90;;;0.80;;
13204;SDS011;6667;52.634;9.226;2024-03-29T00:22:28;1.13;;;1.00;;
13204;SDS011;6667;52.634;9.226;2024-03-29T00:24:53;3.23;;;0.90;;
13204;SDS011;6667;52.634;9.226;2024-03-29T00:27:19;2.33;;;0.70;;
13204;SDS011;6667;52.634;9.226;2024-03-29T00:29:46;3.10;;;1.17;;
13204;SDS011;6667;52.634;9.226;2024-03-29T00:32:12;1.17;;;0.77;;
13204;SDS011;6667;52.634;9.226;2024-03-29T00:34:38;3.20;;;1.27;;
13204;SDS011;6667;52.634;9.226;2024-03-29T00:37:03;1.23;;;1.07;;
13204;SDS011;6667;52.634;9.226;2024-03-29T00:39:29;1.93;;;1.00;;
13204;SDS011;6667;52.634;9.226;2024-03-29T00:41:55;1.60;;;0.80;;
13204;SDS011;6667;52.634;9.226;2024-03-29T00:44:21;1.27;;;0.70;;
13204;SDS011;6667;52.634;9.226;2024-03-29T00:46:48;2.07;;;0.80;;
13204;SDS011;6667;52.634;9.226;2024-03-29T00:49:14;1.87;;;0.63;;
13204;SDS011;6667;52.634;9.226;2024-03-29T00:51:39;0.80;;;0.80;;
13204;SDS011;6667;52.634;9.226;2024-03-29T00:54:05;1.20;;;0.67;;
13204;SDS011;6667;52.634;9.226;2024-03-29T00:56:31;3.20;;;1.00;;
13204;SDS011;6667;52.634;9.226;2024-03-29T00:58:56;2.30;;;0.80;;
13204;SDS011;6667;52.634;9.226;2024-03-29T01:01:22;2.60;;;1.10;;
13204;SDS011;6667;52.634;9.226;2024-03-29T01:03:49;1.50;;;0.73;;
13204;SDS011;6667;52.634;9.226;2024-03-29T01:06:15;1.20;;;0.63;;
13204;SDS011;6667;52.634;9.226;2024-03-29T01:08:41;3.67;;;0.83;;
13204;SDS011;6667;52.634;9.226;2024-03-29T01:11:06;1.33;;;0.60;;
13204;SDS011;6667;52.634;9.226;2024-03-29T01:13:32;1.63;;;1.10;;
13204;SDS011;6667;52.634;9.226;2024-03-29T01:15:58;0.90;;;0.70;;
13204;SDS011;6667;52.634;9.226;2024-03-29T01:18:24;2.77;;;1.00;;
13204;SDS011;6667;52.634;9.226;2024-03-29T01:20:51;1.67;;;0.83;;
13204;SDS011;6667;52.634;9.226;2024-03-29T01:23:16;2.67;;;0.70;;
13204;SDS011;6667;52.634;9.226;2024-03-29T01:25:42;2.03;;;0.70;;
13204;SDS011;6667;52.634;9.226;2024-03-29T01:28:08;2.10;;;0.80;;
13204;SDS011;6667;52.634;9.226;2024-03-29T01:30:34;2.20;;;0.97;;
13204;SDS011;6667;52.634;9.226;2024-03-29T01:32:59;3.13;;;0.90;;
13204;SDS011;6667;52.634;9.226;2024-03-29T01:35:25;3.17;;;1.00;;
13204;SDS011;6667;52.634;9.226;2024-03-29T01:37:52;2.00;;;0.83;;
13204;SDS011;6667;52.634;9.226;2024-03-29T01:40:18;1.63;;;0.80;;
13204;SDS011;6667;52.634;9.226;2024-03-29T01:42:44;2.23;;;0.70;;
13204;SDS011;6667;52.634;9.226;2024-03-29T01:45:09;1.13;;;0.70;;
13204;SDS011;6667;52.634;9.226;2024-03-29T01:47:37;2.53;;;1.20;;
13204;SDS011;6667;52.634;9.226;2024-03-29T01:50:06;2.47;;;1.10;;
13204;SDS011;6667;52.634;9.226;2024-03-29T01:52:33;2.10;;;1.20;;
13204;SDS011;6667;52.634;9.226;2024-03-29T01:55:01;2.10;;;0.83;;
13204;SDS011;6667;52.634;9.226;2024-03-29T01:57:27;4.97;;;1.07;;
13204;SDS011;6667;52.634;9.226;2024-03-29T01:59:54;3.27;;;1.00;;
13204;SDS011;6667;52.634;9.226;2024-03-29T02:02:21;2.77;;;0.90;;
13204;SDS011;6667;52.634;9.226;2024-03-29T02:04:49;1.97;;;1.17;;
13204;SDS011;6667;52.634;9.226;2024-03-29T02:07:16;2.07;;;0.97;;
13204;SDS011;6667;52.634;9.226;2024-03-29T02:09:43;2.53;;;0.80;;
13204;SDS011;6667;52.634;9.226;2024-03-29T02:12:10;2.73;;;0.80;;
13204;SDS011;6667;52.634;9.226;2024-03-29T02:14:36;2.13;;;0.90;;
13204;SDS011;6667;52.634;9.226;2024-03-29T02:17:04;1.77;;;0.77;;
13204;SDS011;6667;52.634;9.226;2024-03-29T02:19:30;2.67;;;0.70;;
13204;SDS011;6667;52.634;9.226;2024-03-29T02:21:57;2.07;;;1.43;;
13204;SDS011;6667;52.634;9.226;2024-03-29T02:24:27;2.47;;;0.70;;
13204;SDS011;6667;52.634;9.226;2024-03-29T02:26:54;3.00;;;1.90;;
13204;SDS011;6667;52.634;9.226;2024-03-29T02:29:22;6.33;;;1.60;;
13204;SDS011;6667;52.634;9.226;2024-03-29T02:31:49;1.57;;;0.80;;
13204;SDS011;6667;52.634;9.226;2024-03-29T02:34:16;2.67;;;1.07;;
13204;SDS011;6667;52.634;9.226;2024-03-29T02:36:43;2.80;;;0.70;;
13204;SDS011;6667;52.634;9.226;2024-03-29T02:39:10;1.40;;;0.90;;
13204;SDS011;6667;52.634;9.226;2024-03-29T02:41:38;2.27;;;0.80;;
13204;SDS011;6667;52.634;9.226;2024-03-29T02:44:05;3.47;;;1.00;;
13204;SDS011;6667;52.634;9.226;2024-03-29T02:46:31;2.30;;;0.70;;
13204;SDS011;6667;52.634;9.226;2024-03-29T02:48:58;2.23;;;0.80;;
13204;SDS011;6667;52.634;9.226;2024-03-29T02:51:24;1.80;;;0.80;;
13204;SDS011;6667;52.634;9.226;2024-03-29T02:53:50;2.83;;;0.93;;
13204;SDS011;6667;52.634;9.226;2024-03-29T02:56:16;2.60;;;0.80;;
13204;SDS011;6667;52.634;9.226;2024-03-29T02:58:47;3.60;;;1.17;;
13204;SDS011;6667;52.634;9.226;2024-03-29T03:01:13;1.33;;;0.80;;
13204;SDS011;6667;52.634;9.226;2024-03-29T03:03:39;2.20;;;0.83;;
13204;SDS011;6667;52.634;9.226;2024-03-29T03:06:05;0.93;;;0.50;;
13204;SDS011;6667;52.634;9.226;2024-03-29T03:08:32;1.97;;;0.73;;
13204;SDS011;6667;52.634;9.226;2024-03-29T03:11:16;2.37;;;1.00;;
13204;SDS011;6667;52.634;9.226;2024-03-29T03:13:43;2.23;;;1.00;;
13204;SDS011;6667;52.634;9.226;2024-03-29T03:16:10;2.77;;;0.87;;
13204;SDS011;6667;52.634;9.226;2024-03-29T03:18:37;1.93;;;0.70;;
13204;SDS011;6667;52.634;9.226;2024-03-29T03:21:02;1.83;;;1.03;;
13204;SDS011;6667;52.634;9.226;2024-03-29T03:23:29;3.10;;;0.80;;
13204;SDS011;6667;52.634;9.226;2024-03-29T03:25:55;1.73;;;0.70;;
13204;SDS011;6667;52.634;9.226;2024-03-29T03:28:23;2.23;;;0.87;;
13204;SDS011;6667;52.634;9.226;2024-03-29T03:30:48;1.97;;;0.80;;
13204;SDS011;6667;52.634;9.226;2024-03-29T03:33:17;2.57;;;0.77;;
13204;SDS011;6667;52.634;9.226;2024-03-29T03:35:43;0.93;;;0.70;;
13204;SDS011;6667;52.634;9.226;2024-03-29T03:38:10;1.90;;;0.80;;
13204;SDS011;6667;52.634;9.226;2024-03-29T03:40:36;2.53;;;0.70;;
13204;SDS011;6667;52.634;9.226;2024-03-29T03:43:04;5.73;;;0.70;;
13204;SDS011;6667;52.634;9.226;2024-03-29T03:45:33;1.40;;;0.90;;
13204;SDS011;6667;52.634;9.226;2024-03-29T03:48:00;4.37;;;1.10;;
13204;SDS011;6667;52.634;9.226;2024-03-29T03:50:28;2.23;;;0.80;;
13204;SDS011;6667;52.634;9.226;2024-03-29T03:52:55;2.50;;;0.90;;
13204;SDS011;6667;52.634;9.226;2024-03-29T03:55:21;2.07;;;1.10;;
13204;SDS011;6667;52.634;9.226;2024-03-29T03:57:48;2.33;;;0.80;;
13204;SDS011;6667;52.634;9.226;2024-03-29T04:00:14;2.63;;;0.93;;
13204;SDS011;6667;52.634;9.226;2024-03-29T04:02:41;1.70;;;0.73;;
13204;SDS011;6667;52.634;9.226;2024-03-29T04:05:07;1.33;;;0.80;;
13204;SDS011;6667;52.634;9.226;2024-03-29T04:07:35;1.90;;;0.83;;
13204;SDS011;6667;52.634;9.226;2024-03-29T04:10:01;4.03;;;1.00;;
13204;SDS011;6667;52.634;9.226;2024-03-29T04:12:28;1.93;;;1.00;;
13204;SDS011;6667;52.634;9.226;2024-03-29T04:14:54;1.13;;;0.57;;
13204;SDS011;6667;52.634;9.226;2024-03-29T04:17:22;2.33;;;0.90;;
13204;SDS011;6667;52.634;9.226;2024-03-29T04:19:48;6.63;;;0.90;;
13204;SDS011;6667;52.634;9.226;2024-03-29T04:22:14;1.97;;;0.87;;
13204;SDS011;6667;52.634;9.226;2024-03-29T04:24:41;1.93;;;0.80;;
13204;SDS011;6667;52.634;9.226;2024-03-29T04:27:08;0.90;;;0.80;;
13204;SDS011;6667;52.634;9.226;2024-03-29T04:29:33;1.97;;;0.73;;
13204;SDS011;6667;52.634;9.226;2024-03-29T04:32:00;2.23;;;0.80;;
13204;SDS011;6667;52.634;9.226;2024-03-29T04:34:26;2.73;;;1.27;;
13204;SDS011;6667;52.634;9.226;2024-03-29T04:36:52;4.93;;;0.93;;
13204;SDS011;6667;52.634;9.226;2024-03-29T04:39:19;1.60;;;0.80;;
13204;SDS011;6667;52.634;9.226;2024-03-29T04:41:47;2.37;;;0.80;;
13204;SDS011;6667;52.634;9.226;2024-03-29T04:44:22;0.77;;;0.70;;
13204;SDS011;6667;52.634;9.226;2024-03-29T04:46:49;2.00;;;0.90;;
13204;SDS011;6667;52.634;9.226;2024-03-29T04:49:18;8.60;;;0.87;;
13204;SDS011;6667;52.634;9.226;2024-03-29T04:51:47;3.87;;;0.73;;
13204;SDS011;6667;52.634;9.226;2024-03-29T04:54:14;2.63;;;0.70;;
13204;SDS011;6667;52.634;9.226;2024-03-29T04:56:42;2.93;;;0.90;;
13204;SDS011;6667;52.634;9.226;2024-03-29T04:59:09;1.50;;;0.80;;
13204;SDS011;6667;52.634;9.226;2024-03-29T05:01:36;3.63;;;1.27;;
13204;SDS011;6667;52.634;9.226;2024-03-29T05:04:03;1.80;;;0.83;;
13204;SDS011;6667;52.634;9.226;2024-03-29T05:06:31;3.20;;;1.20;;
13204;SDS011;6667;52.634;9.226;2024-03-29T05:08:57;1.40;;;1.00;;
13204;SDS011;6667;52.634;9.226;2024-03-29T05:11:24;4.07;;;1.47;;
13204;SDS011;6667;52.634;9.226;2024-03-29T05:13:50;3.67;;;1.90;;
13204;SDS011;6667;52.634;9.226;2024-03-29T05:16:19;3.10;;;1.77;;
13204;SDS011;6667;52.634;9.226;2024-03-29T05:18:46;3.10;;;1.63;;
13204;SDS011;6667;52.634;9.226;2024-03-29T05:21:13;2.80;;;1.90;;
13204;SDS011;6667;52.634;9.226;2024-03-29T05:23:40;5.77;;;2.57;;
13204;SDS011;6667;52.634;9.226;2024-03-29T05:26:06;4.10;;;2.10;;
13204;SDS011;6667;52.634;9.226;2024-03-29T05:28:33;4.13;;;2.23;;
13204;SDS011;6667;52.634;9.226;2024-03-29T05:31:08;8.57;;;2.93;;
13204;SDS011;6667;52.634;9.226;2024-03-29T05:33:39;5.70;;;2.50;;
13204;SDS011;6667;52.634;9.226;2024-03-29T05:36:06;6.63;;;2.60;;
13204;SDS011;6667;52.634;9.226;2024-03-29T05:38:35;3.13;;;2.30;;
13204;SDS011;6667;52.634;9.226;2024-03-29T05:41:02;4.70;;;2.23;;
13204;SDS011;6667;52.634;9.226;2024-03-29T05:43:29;3.67;;;2.20;;
13204;SDS011;6667;52.634;9.226;2024-03-29T05:45:56;5.37;;;1.93;;
13204;SDS011;6667;52.634;9.226;2024-03-29T05:48:25;2.23;;;1.97;;
13204;SDS011;6667;52.634;9.226;2024-03-29T05:50:53;5.27;;;1.87;;
13204;SDS011;6667;52.634;9.226;2024-03-29T05:53:20;2.70;;;1.97;;
13204;SDS011;6667;52.634;9.226;2024-03-29T05:55:46;3.57;;;1.53;;
13204;SDS011;6667;52.634;9.226;2024-03-29T05:58:13;2.70;;;1.53;;
13204;SDS011;6667;52.634;9.226;2024-03-29T06:00:43;1.77;;;1.10;;
13204;SDS011;6667;52.634;9.226;2024-03-29T06:03:10;2.03;;;1.10;;
13204;SDS011;6667;52.634;9.226;2024-03-29T06:05:37;2.20;;;1.10;;
13204;SDS011;6667;52.634;9.226;2024-03-29T06:08:07;3.37;;;1.20;;
13204;SDS011;6667;52.634;9.226;2024-03-29T06:10:34;1.83;;;1.33;;
13204;SDS011;6667;52.634;9.226;2024-03-29T06:13:00;2.20;;;1.07;;
13204;SDS011;6667;52.634;9.226;2024-03-29T06:15:32;1.13;;;0.90;;
13204;SDS011;6667;52.634;9.226;2024-03-29T06:18:17;2.30;;;1.00;;
13204;SDS011;6667;52.634;9.226;2024-03-29T06:20:44;3.53;;;1.03;;
13204;SDS011;6667;52.634;9.226;2024-03-29T06:23:12;3.37;;;1.73;;
13204;SDS011;6667;52.634;9.226;2024-03-29T06:25:39;2.17;;;0.90;;
13204;SDS011;6667;52.634;9.226;2024-03-29T06:28:06;3.23;;;0.93;;
13204;SDS011;6667;52.634;9.226;2024-03-29T06:30:32;2.70;;;1.00;;
13204;SDS011;6667;52.634;9.226;2024-03-29T06:32:59;2.07;;;1.03;;
13204;SDS011;6667;52.634;9.226;2024-03-29T06:35:27;1.30;;;1.07;;
13204;SDS011;6667;52.634;9.226;2024-03-29T06:37:54;4.23;;;1.20;;
13204;SDS011;6667;52.634;9.226;2024-03-29T06:40:23;1.33;;;1.10;;
13204;SDS011;6667;52.634;9.226;2024-03-29T06:42:49;1.87;;;1.30;;
13204;SDS011;6667;52.634;9.226;2024-03-29T06:45:16;1.90;;;0.93;;
13204;SDS011;6667;52.634;9.226;2024-03-29T06:47:43;1.93;;;0.83;;
13204;SDS011;6667;52.634;9.226;2024-03-29T06:50:09;1.03;;;0.83;;
13204;SDS011;6667;52.634;9.226;2024-03-29T06:52:36;1.67;;;1.00;;
13204;SDS011;6667;52.634;9.226;2024-03-29T06:55:02;2.27;;;0.90;;
13204;SDS011;6667;52.634;9.226;2024-03-29T06:57:31;2.77;;;0.87;;
13204;SDS011;6667;52.634;9.226;2024-03-29T06:59:58;0.83;;;0.80;;
13204;SDS011;6667;52.634;9.226;2024-03-29T07:02:24;2.33;;;1.00;;
13204;SDS011;6667;52.634;9.226;2024-03-29T07:04:51;2.73;;;1.10;;
13204;SDS011;6667;52.634;9.226;2024-03-29T07:07:18;1.23;;;0.90;;
13204;SDS011;6667;52.634;9.226;2024-03-29T07:09:44;1.10;;;0.90;;
13204;SDS011;6667;52.634;9.226;2024-03-29T07:12:11;2.70;;;0.80;;
13204;SDS011;6667;52.634;9.226;2024-03-29T07:14:39;1.23;;;0.83;;
13204;SDS011;6667;52.634;9.226;2024-03-29T07:17:05;1.63;;;0.87;;
13204;SDS011;6667;52.634;9.226;2024-03-29T07:19:32;1.87;;;1.20;;
13204;SDS011;6667;52.634;9.226;2024-03-29T07:21:59;2.03;;;0.90;;
13204;SDS011;6667;52.634;9.226;2024-03-29T07:24:25;3.10;;;1.20;;
13204;SDS011;6667;52.634;9.226;2024-03-29T07:26:52;2.33;;;1.00;;
13204;SDS011;6667;52.634;9.226;2024-03-29T07:29:19;2.80;;;1.20;;
13204;SDS011;6667;52.634;9.226;2024-03-29T07:31:47;4.73;;;1.13;;
13204;SDS011;6667;52.634;9.226;2024-03-29T07:34:14;2.57;;;1.07;;
13204;SDS011;6667;52.634;9.226;2024-03-29T07:36:41;2.43;;;1.20;;
13204;SDS011;6667;52.634;9.226;2024-03-29T07:39:08;1.60;;;0.80;;
13204;SDS011;6667;52.634;9.226;2024-03-29T07:41:34;1.60;;;1.10;;
13204;SDS011;6667;52.634;9.226;2024-03-29T07:44:01;1.50;;;1.10;;
13204;SDS011;6667;52.634;9.226;2024-03-29T07:46:29;0.87;;;0.83;;
13204;SDS011;6667;52.634;9.226;2024-03-29T07:48:59;2.07;;;1.30;;
13204;SDS011;6667;52.634;9.226;2024-03-29T07:51:26;1.03;;;0.83;;
13204;SDS011;6667;52.634;9.226;2024-03-29T07:53:53;1.43;;;0.90;;
13204;SDS011;6667;52.634;9.226;2024-03-29T07:56:20;2.40;;;0.90;;
13204;SDS011;6667;52.634;9.226;2024-03-29T07:58:49;0.70;;;0.70;;
13204;SDS011;6667;52.634;9.226;2024-03-29T08:01:17;1.93;;;0.87;;
13204;SDS011;6667;52.634;9.226;2024-03-29T08:03:44;4.50;;;0.80;;
13204;SDS011;6667;52.634;9.226;2024-03-29T08:06:13;1.90;;;1.53;;
13204;SDS011;6667;52.634;9.226;2024-03-29T08:08:41;0.77;;;0.77;;
13204;SDS011;6667;52.634;9.226;2024-03-29T08:11:08;1.37;;;1.10;;
13204;SDS011;6667;52.634;9.226;2024-03-29T08:13:35;1.53;;;1.17;;
13204;SDS011;6667;52.634;9.226;2024-03-29T08:16:02;1.57;;;0.90;;
13204;SDS011;6667;52.634;9.226;2024-03-29T08:18:29;3.67;;;1.17;;
13204;SDS011;6667;52.634;9.226;2024-03-29T08:20:57;3.27;;;1.23;;
13204;SDS011;6667;52.634;9.226;2024-03-29T08:23:25;3.07;;;1.30;;
13204;SDS011;6667;52.634;9.226;2024-03-29T08:25:52;3.07;;;1.00;;
13204;SDS011;6667;52.634;9.226;2024-03-29T08:28:20;1.77;;;1.40;;
13204;SDS011;6667;52.634;9.226;2024-03-29T08:30:56;2.43;;;1.60;;
13204;SDS011;6667;52.634;9.226;2024-03-29T08:33:23;0.90;;;0.77;;
13204;SDS011;6667;52.634;9.226;2024-03-29T08:35:50;1.37;;;1.03;;
13204;SDS011;6667;52.634;9.226;2024-03-29T08:38:17;2.40;;;1.17;;
13204;SDS011;6667;52.634;9.226;2024-03-29T08:40:45;2.20;;;1.20;;
13204;SDS011;6667;52.634;9.226;2024-03-29T08:43:13;1.93;;;0.60;;
13204;SDS011;6667;52.634;9.226;2024-03-29T08:45:40;2.67;;;0.90;;
13204;SDS011;6667;52.634;9.226;2024-03-29T08:48:07;2.30;;;1.03;;
13204;SDS011;6667;52.634;9.226;2024-03-29T08:50:34;1.97;;;0.80;;
13204;SDS011;6667;52.634;9.226;2024-03-29T08:53:01;1.60;;;1.13;;
13204;SDS011;6667;52.634;9.226;2024-03-29T08:55:28;1.40;;;1.00;;
13204;SDS011;6667;52.634;9.226;2024-03-29T08:57:56;1.50;;;1.00;;
13204;SDS011;6667;52.634;9.226;2024-03-29T09:00:23;3.27;;;1.13;;
13204;SDS011;6667;52.634;9.226;2024-03-29T09:02:50;2.43;;;1.00;;
13204;SDS011;6667;52.634;9.226;2024-03-29T09:05:16;2.47;;;1.73;;
13204;SDS011;6667;52.634;9.226;2024-03-29T09:07:43;2.20;;;1.10;;
13204;SDS011;6667;52.634;9.226;2024-03-29T09:10:10;1.20;;;0.90;;
13204;SDS011;6667;52.634;9.226;2024-03-29T09:12:37;1.57;;;0.90;;
13204;SDS011;6667;52.634;9.226;2024-03-29T09:15:05;3.30;;;1.13;;
13204;SDS011;6667;52.634;9.226;2024-03-29T09:17:38;1.80;;;1.10;;
13204;SDS011;6667;52.634;9.226;2024-03-29T09:20:05;1.30;;;1.00;;
13204;SDS011;6667;52.634;9.226;2024-03-29T09:22:32;3.60;;;0.97;;
13204;SDS011;6667;52.634;9.226;2024-03-29T09:24:58;2.87;;;1.30;;
13204;SDS011;6667;52.634;9.226;2024-03-29T09:27:26;5.03;;;1.00;;
13204;SDS011;6667;52.634;9.226;2024-03-29T09:29:54;5.23;;;1.23;;
13204;SDS011;6667;52.634;9.226;2024-03-29T09:32:22;3.83;;;1.93;;
13204;SDS011;6667;52.634;9.226;2024-03-29T09:34:49;2.07;;;1.03;;
13204;SDS011;6667;52.634;9.226;2024-03-29T09:37:16;2.10;;;1.10;;
13204;SDS011;6667;52.634;9.226;2024-03-29T09:39:44;3.00;;;1.20;;
13204;SDS011;6667;52.634;9.226;2024-03-29T09:42:12;1.93;;;1.27;;
13204;SDS011;6667;52.634;9.226;2024-03-29T09:44:43;1.40;;;1.10;;
13204;SDS011;6667;52.634;9.226;2024-03-29T09:47:11;2.60;;;1.00;;
13204;SDS011;6667;52.634;9.226;2024-03-29T09:49:42;1.37;;;0.80;;
13204;SDS011;6667;52.634;9.226;2024-03-29T09:52:10;2.00;;;1.40;;
13204;SDS011;6667;52.634;9.226;2024-03-29T09:54:38;1.13;;;0.93;;
13204;SDS011;6667;52.634;9.226;2024-03-29T09:57:05;0.80;;;0.80;;
13204;SDS011;6667;52.634;9.226;2024-03-29T09:59:31;0.80;;;0.80;;
13204;SDS011;6667;52.634;9.226;2024-03-29T10:01:59;1.30;;;0.80;;
13204;SDS011;6667;52.634;9.226;2024-03-29T10:04:29;1.50;;;1.30;;
13204;SDS011;6667;52.634;9.226;2024-03-29T10:06:58;2.17;;;0.90;;
13204;SDS011;6667;52.634;9.226;2024-03-29T10:09:25;1.27;;;0.83;;
13204;SDS011;6667;52.634;9.226;2024-03-29T10:11:54;1.57;;;0.93;;
13204;SDS011;6667;52.634;9.226;2024-03-29T10:14:21;0.60;;;0.60;;
13204;SDS011;6667;52.634;9.226;2024-03-29T10:16:50;1.20;;;0.97;;
13204;SDS011;6667;52.634;9.226;2024-03-29T10:19:16;1.20;;;0.90;;
13204;SDS011;6667;52.634;9.226;2024-03-29T10:21:43;1.60;;;1.00;;
13204;SDS011;6667;52.634;9.226;2024-03-29T10:24:12;1.17;;;0.83;;
13204;SDS011;6667;52.634;9.226;2024-03-29T10:26:40;1.40;;;0.80;;
13204;SDS011;6667;52.634;9.226;2024-03-29T10:29:06;1.80;;;0.90;;
13204;SDS011;6667;52.634;9.226;2024-03-29T10:31:34;2.53;;;0.80;;
13204;SDS011;6667;52.634;9.226;2024-03-29T10:34:02;5.17;;;1.00;;
13204;SDS011;6667;52.634;9.226;2024-03-29T10:36:30;2.43;;;0.70;;
13204;SDS011;6667;52.634;9.226;2024-03-29T10:39:00;0.60;;;0.40;;
13204;SDS011;6667;52.634;9.226;2024-03-29T10:41:30;0.80;;;0.80;;
13204;SDS011;6667;52.634;9.226;2024-03-29T10:43:58;0.70;;;0.70;;
13204;SDS011;6667;52.634;9.226;2024-03-29T10:46:30;1.23;;;0.70;;
13204;SDS011;6667;52.634;9.226;2024-03-29T10:48:57;1.63;;;0.90;;
13204;SDS011;6667;52.634;9.226;2024-03-29T10:51:24;2.87;;;1.00;;
13204;SDS011;6667;52.634;9.226;2024-03-29T10:53:51;1.37;;;0.80;;
13204;SDS011;6667;52.634;9.226;2024-03-29T10:56:19;1.97;;;0.80;;
13204;SDS011;6667;52.634;9.226;2024-03-29T10:58:50;1.73;;;0.70;;
13204;SDS011;6667;52.634;9.226;2024-03-29T11:01:22;0.57;;;0.57;;
13204;SDS011;6667;52.634;9.226;2024-03-29T11:03:50;0.97;;;0.70;;
13204;SDS011;6667;52.634;9.226;2024-03-29T11:06:20;0.90;;;0.70;;
13204;SDS011;6667;52.634;9.226;2024-03-29T11:08:52;3.50;;;0.60;;
13204;SDS011;6667;52.634;9.226;2024-03-29T11:11:20;1.57;;;0.67;;
13204;SDS011;6667;52.634;9.226;2024-03-29T11:13:53;0.60;;;0.60;;
13204;SDS011;6667;52.634;9.226;2024-03-29T11:16:24;1.77;;;0.70;;
13204;SDS011;6667;52.634;9.226;2024-03-29T11:18:51;1.20;;;0.87;;
13204;SDS011;6667;52.634;9.226;2024-03-29T11:21:18;1.00;;;0.60;;
13204;SDS011;6667;52.634;9.226;2024-03-29T11:23:48;1.80;;;0.77;;
13204;SDS011;6667;52.634;9.226;2024-03-29T11:26:15;1.60;;;0.60;;
13204;SDS011;6667;52.634;9.226;2024-03-29T11:28:47;1.50;;;0.73;;
13204;SDS011;6667;52.634;9.226;2024-03-29T11:31:16;2.57;;;0.83;;
13204;SDS011;6667;52.634;9.226;2024-03-29T11:33:44;1.97;;;1.37;;
13204;SDS011;6667;52.634;9.226;2024-03-29T11:36:13;0.87;;;0.80;;
13204;SDS011;6667;52.634;9.226;2024-03-29T11:38:42;3.10;;;0.93;;
13204;SDS011;6667;52.634;9.226;2024-03-29T11:41:11;0.50;;;0.50;;
13204;SDS011;6667;52.634;9.226;2024-03-29T11:43:38;0.60;;;0.50;;
13204;SDS011;6667;52.634;9.226;2024-03-29T11:46:07;1.67;;;0.93;;
13204;SDS011;6667;52.634;9.226;2024-03-29T11:48:37;3.03;;;1.20;;
13204;SDS011;6667;52.634;9.226;2024-03-29T11:51:04;3.13;;;1.00;;
13204;SDS011;6667;52.634;9.226;2024-03-29T11:53:33;2.17;;;0.97;;
13204;SDS011;6667;52.634;9.226;2024-03-29T11:56:00;1.80;;;0.70;;
13204;SDS011;6667;52.634;9.226;2024-03-29T11:58:28;2.10;;;1.00;;
13204;SDS011;6667;52.634;9.226;2024-03-29T12:00:56;0.60;;;0.60;;
13204;SDS011;6667;52.634;9.226;2024-03-29T12:03:25;2.23;;;0.67;;
13204;SDS011;6667;52.634;9.226;2024-03-29T12:05:54;2.17;;;0.70;;
13204;SDS011;6667;52.634;9.226;2024-03-29T12:08:27;0.60;;;0.60;;
13204;SDS011;6667;52.634;9.226;2024-03-29T12:10:54;3.43;;;1.67;;
13204;SDS011;6667;52.634;9.226;2024-03-29T12:13:21;2.73;;;2.00;;
13204;SDS011;6667;52.634;9.226;2024-03-29T12:15:48;2.43;;;1.20;;
13204;SDS011;6667;52.634;9.226;2024-03-29T12:18:15;1.43;;;0.90;;
13204;SDS011;6667;52.634;9.226;2024-03-29T12:20:42;1.37;;;1.17;;
13204;SDS011;6667;52.634;9.226;2024-03-29T12:23:12;1.10;;;0.80;;
13204;SDS011;6667;52.634;9.226;2024-03-29T12:25:39;2.27;;;0.87;;
13204;SDS011;6667;52.634;9.226;2024-03-29T12:28:06;2.33;;;1.10;;
13204;SDS011;6667;52.634;9.226;2024-03-29T12:30:33;3.07;;;1.30;;
13204;SDS011;6667;52.634;9.226;2024-03-29T12:33:01;0.70;;;0.70;;
13204;SDS011;6667;52.634;9.226;2024-03-29T12:35:28;1.00;;;0.90;;
13204;SDS011;6667;52.634;9.226;2024-03-29T12:37:57;1.30;;;1.00;;
13204;SDS011;6667;52.634;9.226;2024-03-29T12:40:27;1.27;;;1.17;;
13204;SDS011;6667;52.634;9.226;2024-03-29T12:42:55;1.57;;;1.07;;
13204;SDS011;6667;52.634;9.226;2024-03-29T12:45:22;1.83;;;1.00;;
13204;SDS011;6667;52.634;9.226;2024-03-29T12:47:48;2.13;;;1.20;;
13204;SDS011;6667;52.634;9.226;2024-03-29T12:50:23;2.47;;;1.53;;
13204;SDS011;6667;52.634;9.226;2024-03-29T12:52:53;2.00;;;1.80;;
13204;SDS011;6667;52.634;9.226;2024-03-29T12:55:20;1.20;;;1.10;;
13204;SDS011;6667;52.634;9.226;2024-03-29T12:57:49;2.23;;;1.23;;
13204;SDS011;6667;52.634;9.226;2024-03-29T13:00:18;1.67;;;1.50;;
13204;SDS011;6667;52.634;9.226;2024-03-29T13:02:45;3.00;;;1.50;;
13204;SDS011;6667;52.634;9.226;2024-03-29T13:05:11;1.47;;;1.10;;
13204;SDS011;6667;52.634;9.226;2024-03-29T13:07:38;1.30;;;0.90;;
13204;SDS011;6667;52.634;9.226;2024-03-29T13:10:05;1.20;;;0.83;;
13204;SDS011;6667;52.634;9.226;2024-03-29T13:12:37;1.50;;;1.10;;
13204;SDS011;6667;52.634;9.226;2024-03-29T13:15:14;1.57;;;1.13;;
13204;SDS011;6667;52.634;9.226;2024-03-29T13:17:42;2.20;;;1.23;;
13204;SDS011;6667;52.634;9.226;2024-03-29T13:20:10;2.73;;;1.40;;
13204;SDS011;6667;52.634;9.226;2024-03-29T13:22:37;1.57;;;1.40;;
13204;SDS011;6667;52.634;9.226;2024-03-29T13:25:07;2.87;;;1.47;;
13204;SDS011;6667;52.634;9.226;2024-03-29T13:27:35;2.90;;;2.23;;
13204;SDS011;6667;52.634;9.226;2024-03-29T13:30:02;3.67;;;2.40;;
13204;SDS011;6667;52.634;9.226;2024-03-29T13:32:31;1.93;;;1.60;;
13204;SDS011;6667;52.634;9.226;2024-03-29T13:34:58;2.47;;;1.30;;
13204;SDS011;6667;52.634;9.226;2024-03-29T13:37:25;2.20;;;1.70;;
13204;SDS011;6667;52.634;9.226;2024-03-29T13:39:52;1.93;;;1.33;;
13204;SDS011;6667;52.634;9.226;2024-03-29T13:42:19;3.47;;;1.60;;
13204;SDS011;6667;52.634;9.226;2024-03-29T13:44:46;1.77;;;1.50;;
13204;SDS011;6667;52.634;9.226;2024-03-29T13:47:15;1.40;;;1.30;;
13204;SDS011;6667;52.634;9.226;2024-03-29T13:49:44;3.73;;;1.60;;
13204;SDS011;6667;52.634;9.226;2024-03-29T13:52:11;1.47;;;0.90;;
13204;SDS011;6667;52.634;9.226;2024-03-29T13:54:42;1.77;;;1.23;;
13204;SDS011;6667;52.634;9.226;2024-03-29T13:57:08;1.17;;;0.90;;
13204;SDS011;6667;52.634;9.226;2024-03-29T13:59:35;1.63;;;1.13;;
13204;SDS011;6667;52.634;9.226;2024-03-29T14:02:02;1.93;;;0.90;;
13204;SDS011;6667;52.634;9.226;2024-03-29T14:04:29;2.27;;;1.10;;
13204;SDS011;6667;52.634;9.226;2024-03-29T14:06:57;2.00;;;0.93;;
13204;SDS011;6667;52.634;9.226;2024-03-29T14:09:24;1.03;;;0.93;;
13204;SDS011;6667;52.634;9.226;2024-03-29T14:11:50;0.90;;;0.90;;
13204;SDS011;6667;52.634;9.226;2024-03-29T14:14:17;0.63;;;0.63;;
13204;SDS011;6667;52.634;9.226;2024-03-29T14:16:44;1.47;;;0.83;;
13204;SDS011;6667;52.634;9.226;2024-03-29T14:19:11;0.80;;;0.80;;
13204;SDS011;6667;52.634;9.226;2024-03-29T14:21:39;0.90;;;0.80;;
13204;SDS011;6667;52.634;9.226;2024-03-29T14:24:07;1.37;;;1.00;;
13204;SDS011;6667;52.634;9.226;2024-03-29T14:26:34;1.17;;;1.07;;
13204;SDS011;6667;52.634;9.226;2024-03-29T14:29:00;1.63;;;0.80;;
13204;SDS011;6667;52.634;9.226;2024-03-29T14:31:28;1.33;;;1.23;;
13204;SDS011;6667;52.634;9.226;2024-03-29T14:33:54;1.90;;;1.00;;
13204;SDS011;6667;52.634;9.226;2024-03-29T14:36:21;1.83;;;1.00;;
13204;SDS011;6667;52.634;9.226;2024-03-29T14:38:48;3.20;;;0.90;;
13204;SDS011;6667;52.634;9.226;2024-03-29T14:41:17;1.80;;;0.90;;
13204;SDS011;6667;52.634;9.226;2024-03-29T14:43:46;2.10;;;0.80;;
13204;SDS011;6667;52.634;9.226;2024-03-29T14:46:15;2.13;;;0.80;;
13204;SDS011;6667;52.634;9.226;2024-03-29T14:48:42;1.83;;;1.00;;
13204;SDS011;6667;52.634;9.226;2024-03-29T14:51:08;2.17;;;1.10;;
13204;SDS011;6667;52.634;9.226;2024-03-29T14:53:35;0.77;;;0.77;;
13204;SDS011;6667;52.634;9.226;2024-03-29T14:56:02;0.93;;;0.77;;
13204;SDS011;6667;52.634;9.226;2024-03-29T14:58:30;1.00;;;0.90;;
13204;SDS011;6667;52.634;9.226;2024-03-29T15:00:57;1.37;;;0.90;;